° 23
SULAYMANIYAH INTERNATIONAL AIRPORT
  • SulyAir
  • SulyAir
1 1
Arrival

ArrivalsMore >>

Departure

DeparturesMore >>

TAF

TAF ORSU 212300Z 2200/2224 32006KT CAVOK
BECMG 2206/2208 16006KT
TEMPO 2210/2216 26012KT 9999 FEW045
BECMG 2216/2218 34006KT=

METARs

METAR ORSU 220100Z 30006KT CAVOK 26/09 Q1007=